Time;durP1;ratioP1;P1;durP2;ratioP2;P2;SDS_P1;SDS_P2;PMS_P1;PMS_P2;Temp;Humidity;BMP_temperature;BMP_pressure;BME280_temperature;BME280_humidity;BME280_pressure;Samples;Min_cycle;Max_cycle;Signal;HPM_P1;HPM_P2
2022/04/04 00:01:05;;;;;;;2.35;1.15;;;15.40;40.30;14.60;101365.00;;;;5053395;28;20052;-68
2022/04/04 00:03:51;;;;;;;0.98;0.88;;;15.40;40.30;14.60;101361.00;;;;5062429;28;20041;-68
2022/04/04 00:06:37;;;;;;;1.15;0.70;;;15.40;41.00;14.60;101356.00;;;;5056254;28;20489;-68
2022/04/04 00:09:26;;;;;;;2.78;0.90;;;15.40;40.30;14.60;101357.00;;;;5062392;28;20045;-68
2022/04/04 00:12:12;;;;;;;1.48;0.80;;;15.40;40.30;14.60;101352.00;;;;5058037;28;20033;-68
2022/04/04 00:14:58;;;;;;;0.65;0.63;;;15.40;40.30;14.60;101343.00;;;;5052736;28;20066;-68
2022/04/04 00:17:47;;;;;;;1.10;1.00;;;15.40;40.30;14.60;101346.00;;;;5059615;28;20497;-68
2022/04/04 00:20:34;;;;;;;1.58;0.98;;;15.40;40.30;14.60;101343.00;;;;5065567;28;20089;-68
2022/04/04 00:23:20;;;;;;;1.55;0.90;;;15.40;40.30;14.60;101333.00;;;;5064431;28;20122;-68
2022/04/04 00:26:06;;;;;;;2.25;1.00;;;15.40;40.30;14.60;101340.00;;;;5066515;28;20103;-68
2022/04/04 00:28:52;;;;;;;1.15;1.00;;;15.40;40.40;14.60;101332.00;;;;5061360;28;20040;-68
2022/04/04 00:31:38;;;;;;;0.80;0.77;;;15.40;40.40;14.50;101328.00;;;;5059971;28;20027;-68
2022/04/04 00:34:24;;;;;;;2.72;0.98;;;15.40;40.40;14.60;101325.00;;;;5064104;28;20048;-68
2022/04/04 00:37:10;;;;;;;1.05;0.95;;;15.40;40.40;14.60;101325.00;;;;5061843;28;20037;-68
2022/04/04 00:39:56;;;;;;;3.92;1.23;;;15.40;40.40;14.60;101323.00;;;;5065191;28;20532;-68
2022/04/04 00:42:43;;;;;;;2.70;1.20;;;15.40;40.40;14.50;101326.00;;;;5062736;28;20048;-68
2022/04/04 00:45:29;;;;;;;2.08;1.08;;;15.40;40.40;14.50;101326.00;;;;5059525;28;20041;-68
2022/04/04 00:48:15;;;;;;;1.10;0.98;;;15.40;40.40;14.60;101312.00;;;;5040074;28;20505;-68
2022/04/04 00:51:02;;;;;;;1.35;0.73;;;15.40;40.40;14.60;101306.00;;;;5061182;28;20076;-68
2022/04/04 00:53:48;;;;;;;2.60;1.08;;;15.30;40.40;14.50;101308.00;;;;5063994;28;20047;-68
2022/04/04 00:56:35;;;;;;;1.83;1.00;;;15.30;40.40;14.50;101299.00;;;;5032977;28;20756;-68
2022/04/04 00:59:21;;;;;;;2.00;1.20;;;15.30;40.30;14.50;101305.00;;;;5058999;28;20045;-68
2022/04/04 01:02:07;;;;;;;1.00;0.80;;;15.30;40.40;14.50;101291.00;;;;5039250;28;20046;-68
2022/04/04 01:04:53;;;;;;;2.88;1.20;;;15.30;40.40;14.50;101295.00;;;;5060120;28;20037;-68
2022/04/04 01:07:39;;;;;;;3.50;1.20;;;15.30;40.40;14.50;101289.00;;;;5061232;28;20398;-68
2022/04/04 01:10:27;;;;;;;2.00;1.23;;;15.30;40.40;14.50;101289.00;;;;5053169;28;20040;-68
2022/04/04 01:13:14;;;;;;;1.30;1.10;;;15.30;40.40;14.50;101277.00;;;;5059546;28;20067;-68
2022/04/04 01:16:00;;;;;;;1.52;1.05;;;15.30;40.40;14.50;101288.00;;;;5066443;28;20036;-68
2022/04/04 01:18:46;;;;;;;1.75;1.08;;;15.30;40.40;14.50;101276.00;;;;5056711;28;20049;-68
2022/04/04 01:21:32;;;;;;;1.35;1.02;;;15.30;40.40;14.50;101271.00;;;;5061227;28;20032;-68
2022/04/04 01:24:18;;;;;;;3.05;1.08;;;15.30;40.40;14.50;101260.00;;;;5061097;28;20048;-68
2022/04/04 01:27:05;;;;;;;1.92;1.02;;;15.20;40.40;14.50;101255.00;;;;5059852;28;20040;-68
2022/04/04 01:29:51;;;;;;;0.97;0.70;;;15.20;40.40;14.50;101250.00;;;;5045640;28;20493;-68
2022/04/04 01:32:37;;;;;;;1.13;0.90;;;15.30;40.50;14.40;101239.00;;;;5056555;28;20043;-68
2022/04/04 01:35:23;;;;;;;2.45;1.30;;;15.30;40.40;14.40;101235.00;;;;5062002;28;20052;-68
2022/04/04 01:38:10;;;;;;;1.83;1.27;;;15.20;40.40;14.40;101244.00;;;;5044080;28;20049;-68
2022/04/04 01:40:56;;;;;;;2.03;1.20;;;15.20;40.40;14.40;101233.00;;;;5061030;28;20120;-68
2022/04/04 01:43:42;;;;;;;2.95;1.35;;;15.20;40.40;14.40;101222.00;;;;5055717;28;20044;-68
2022/04/04 01:46:28;;;;;;;1.60;1.30;;;15.20;40.50;14.40;101217.00;;;;5064088;28;20037;-68
2022/04/04 01:49:15;;;;;;;2.13;1.30;;;15.20;41.20;14.40;101212.00;;;;5057621;28;20095;-68
2022/04/04 01:52:01;;;;;;;1.85;1.35;;;15.20;40.50;14.40;101204.00;;;;5052201;28;20033;-68
2022/04/04 01:54:47;;;;;;;1.90;1.25;;;15.20;40.50;14.40;101198.00;;;;5059978;28;20074;-68
2022/04/04 01:57:35;;;;;;;1.70;1.60;;;15.20;40.60;14.40;101182.00;;;;5040455;28;20410;-68
2022/04/04 02:00:21;;;;;;;1.60;1.50;;;15.20;40.50;14.40;101178.00;;;;5057086;28;20055;-68
2022/04/04 02:03:07;;;;;;;1.65;1.55;;;15.10;40.40;14.40;101169.00;;;;5060667;28;20145;-68
2022/04/04 02:05:53;;;;;;;2.00;1.80;;;15.10;40.40;14.40;101172.00;;;;5047487;28;20398;-68
2022/04/04 02:08:39;;;;;;;2.65;1.52;;;15.20;40.60;14.40;101163.00;;;;5057661;28;20319;-68
2022/04/04 02:11:25;;;;;;;2.53;2.15;;;15.10;40.50;14.30;101162.00;;;;5058185;28;20036;-68
2022/04/04 02:14:11;;;;;;;2.50;1.80;;;15.10;40.50;14.30;101160.00;;;;5051979;28;20461;-68
2022/04/04 02:16:58;;;;;;;3.20;1.88;;;15.10;40.50;14.30;101146.00;;;;5063818;28;20111;-68
2022/04/04 02:19:44;;;;;;;2.75;1.77;;;15.10;40.50;14.30;101144.00;;;;5057705;28;20051;-68
2022/04/04 02:22:30;;;;;;;2.25;1.80;;;15.10;40.60;14.30;101142.00;;;;5056344;28;20041;-68
2022/04/04 02:25:17;;;;;;;2.30;1.90;;;15.10;40.60;14.30;101135.00;;;;5061661;28;20056;-68
2022/04/04 02:28:03;;;;;;;2.75;2.00;;;15.10;40.50;14.30;101134.00;;;;5058623;28;20041;-68
2022/04/04 02:30:50;;;;;;;3.55;2.10;;;15.00;40.50;14.30;101138.00;;;;5066956;28;20036;-68
2022/04/04 02:33:36;;;;;;;5.35;1.95;;;15.10;40.60;14.30;101136.00;;;;5060236;28;20547;-68
2022/04/04 02:36:22;;;;;;;3.35;2.00;;;15.10;40.60;14.30;101123.00;;;;5056731;28;20074;-68
2022/04/04 02:39:08;;;;;;;2.97;1.80;;;15.10;40.60;14.30;101121.00;;;;5060314;28;20040;-68
2022/04/04 02:41:55;;;;;;;2.67;1.98;;;15.10;40.60;14.30;101114.00;;;;5056196;28;20044;-68
2022/04/04 02:44:41;;;;;;;2.60;2.13;;;15.00;40.60;14.30;101108.00;;;;5063057;28;20048;-68
2022/04/04 02:47:30;;;;;;;2.05;1.80;;;15.00;40.60;14.30;101096.00;;;;5058056;28;20472;-68
2022/04/04 02:50:16;;;;;;;2.85;1.85;;;15.00;40.60;14.30;101091.00;;;;5066425;28;20037;-68
2022/04/04 02:53:03;;;;;;;2.55;1.73;;;15.00;40.60;14.30;101084.00;;;;5055541;28;20334;-68
2022/04/04 02:58:53;;;;;;;2.30;1.70;;;15.00;40.60;14.20;101074.00;;;;5062430;28;20040;-68
2022/04/04 03:01:41;;;;;;;3.33;1.75;;;15.00;40.60;14.20;101053.00;;;;5048555;28;20104;-68
2022/04/04 03:04:27;;;;;;;3.60;1.98;;;15.00;40.60;14.20;101051.00;;;;5051773;28;20041;-68
2022/04/04 03:07:13;;;;;;;2.15;1.67;;;15.00;40.50;14.20;101049.00;;;;5057576;28;20037;-68
2022/04/04 03:09:59;;;;;;;3.20;2.03;;;15.00;40.50;14.20;101039.00;;;;5056997;28;20133;-68
2022/04/04 03:12:48;;;;;;;3.58;1.90;;;15.00;40.60;14.20;101037.00;;;;5060460;28;20165;-68
2022/04/04 03:15:35;;;;;;;4.70;2.00;;;15.00;40.60;14.20;101029.00;;;;5061729;28;20040;-68
2022/04/04 03:18:21;;;;;;;1.70;1.60;;;15.00;40.50;14.20;101022.00;;;;5045665;28;20045;-68
2022/04/04 03:21:07;;;;;;;2.35;1.60;;;15.00;40.50;14.20;101022.00;;;;5031405;28;20418;-68
2022/04/04 03:23:54;;;;;;;2.65;1.90;;;15.00;40.50;14.20;101017.00;;;;5054974;28;20036;-68
2022/04/04 03:26:40;;;;;;;2.22;1.75;;;15.00;40.60;14.20;101011.00;;;;5056351;28;20064;-68
2022/04/04 03:29:26;;;;;;;2.13;1.95;;;14.90;40.50;14.20;101008.00;;;;5064722;28;20051;-68
2022/04/04 03:32:12;;;;;;;3.00;2.53;;;14.90;40.50;14.20;100994.00;;;;5063879;28;20029;-68
2022/04/04 03:34:58;;;;;;;2.85;1.88;;;14.90;40.30;14.20;100989.00;;;;5061423;28;20037;-68
2022/04/04 03:37:48;;;;;;;2.25;2.05;;;15.00;40.50;14.20;100983.00;;;;5058933;28;20066;-68
2022/04/04 03:40:34;;;;;;;3.33;2.22;;;15.00;40.40;14.20;100981.00;;;;5059541;28;20036;-68
2022/04/04 03:43:21;;;;;;;2.90;2.47;;;14.90;40.40;14.20;100978.00;;;;5061724;28;20064;-68
2022/04/04 03:46:07;;;;;;;4.25;2.38;;;14.90;40.30;14.20;100973.00;;;;5070569;28;20048;-68
2022/04/04 03:48:53;;;;;;;3.75;2.22;;;14.90;40.20;14.20;100969.00;;;;5060097;28;20048;-68
2022/04/04 03:51:39;;;;;;;2.40;2.20;;;14.90;40.30;14.20;100968.00;;;;5057078;28;20364;-68
2022/04/04 03:54:25;;;;;;;3.78;2.28;;;14.90;40.20;14.20;100951.00;;;;5067609;28;20075;-68
2022/04/04 03:57:11;;;;;;;2.85;2.08;;;14.90;40.20;14.10;100950.00;;;;5056395;28;20029;-68
2022/04/04 03:59:57;;;;;;;3.17;2.50;;;14.90;40.20;14.10;100938.00;;;;5063761;28;20094;-68
2022/04/04 04:02:43;;;;;;;3.70;2.80;;;14.90;40.10;14.10;100923.00;;;;5066437;28;20093;-68
2022/04/04 04:05:29;;;;;;;2.92;2.60;;;14.90;40.00;14.10;100927.00;;;;5044256;28;20044;-68
2022/04/04 04:08:15;;;;;;;3.28;2.50;;;14.80;39.90;14.10;100927.00;;;;5063089;28;20044;-68
2022/04/04 04:11:01;;;;;;;2.78;2.45;;;14.80;40.00;14.10;100924.00;;;;5040772;28;20037;-68
2022/04/04 04:13:47;;;;;;;2.53;2.33;;;14.80;39.90;14.10;100916.00;;;;5062273;28;20097;-68
2022/04/04 04:16:33;;;;;;;3.28;2.85;;;14.80;40.00;14.10;100908.00;;;;5060192;28;20053;-68
2022/04/04 04:22:27;;;;;;;2.95;2.63;;;14.80;40.10;14.10;100896.00;;;;5056773;28;20040;-68
2022/04/04 04:25:14;;;;;;;3.40;3.10;;;14.80;40.00;14.10;100906.00;;;;5051332;28;20045;-68
2022/04/04 04:28:02;;;;;;;4.90;3.20;;;14.80;39.80;14.00;100893.00;;;;5056680;28;20049;-68
2022/04/04 04:30:48;;;;;;;4.68;3.13;;;14.80;39.90;14.00;100885.00;;;;5052910;28;20072;-68
2022/04/04 04:33:34;;;;;;;3.83;3.00;;;14.80;39.90;14.00;100874.00;;;;5049061;28;20032;-68
2022/04/04 04:36:20;;;;;;;4.97;3.08;;;14.80;39.90;14.00;100878.00;;;;5058737;28;20286;-68
2022/04/04 04:39:07;;;;;;;4.30;3.40;;;14.80;39.80;14.10;100873.00;;;;5057251;28;20052;-68
2022/04/04 04:41:53;;;;;;;3.85;3.25;;;14.80;39.80;14.00;100873.00;;;;5041119;28;20518;-68
2022/04/04 04:44:39;;;;;;;4.75;3.42;;;14.80;39.80;14.00;100874.00;;;;5047059;28;20047;-68
2022/04/04 04:47:25;;;;;;;5.00;3.50;;;14.80;39.80;14.00;100855.00;;;;5047020;28;20036;-68
2022/04/04 04:50:13;;;;;;;4.90;3.22;;;14.80;39.80;14.00;100849.00;;;;5058114;28;20045;-68
2022/04/04 04:52:59;;;;;;;3.65;3.08;;;14.80;39.80;14.00;100847.00;;;;5055860;28;20037;-68
2022/04/04 04:55:46;;;;;;;3.78;3.28;;;14.80;39.70;14.00;100839.00;;;;5057739;28;20048;-68
2022/04/04 04:58:32;;;;;;;4.95;3.45;;;14.70;39.60;14.00;100838.00;;;;5062705;28;20044;-68
2022/04/04 05:01:18;;;;;;;4.45;3.45;;;14.80;39.70;14.00;100832.00;;;;5056209;28;20461;-68
2022/04/04 05:04:04;;;;;;;3.88;3.30;;;14.80;39.60;14.00;100826.00;;;;5058833;28;20507;-68
2022/04/04 05:06:50;;;;;;;4.47;3.33;;;14.80;39.60;14.00;100816.00;;;;5054057;28;20084;-68
2022/04/04 05:09:37;;;;;;;3.53;3.10;;;14.70;39.60;14.00;100809.00;;;;5058235;28;20235;-68
2022/04/04 05:12:23;;;;;;;4.07;3.42;;;14.70;39.50;14.00;100803.00;;;;5058715;28;20501;-68
2022/04/04 05:15:09;;;;;;;4.43;3.33;;;14.70;39.40;14.00;100796.00;;;;5055090;28;20516;-68
2022/04/04 05:17:55;;;;;;;4.65;3.38;;;14.70;39.40;14.00;100785.00;;;;5063120;28;20047;-68
2022/04/04 05:20:41;;;;;;;3.58;3.08;;;14.70;39.40;14.00;100776.00;;;;5059146;28;20142;-68
2022/04/04 05:23:27;;;;;;;3.38;2.92;;;14.70;39.40;14.00;100780.00;;;;5053801;28;20091;-68
2022/04/04 05:26:13;;;;;;;5.20;3.30;;;14.70;39.40;14.00;100776.00;;;;5055464;28;20045;-68
2022/04/04 05:28:59;;;;;;;3.40;2.80;;;14.70;39.30;14.00;100765.00;;;;5069762;28;20048;-68
2022/04/04 05:31:45;;;;;;;3.63;2.92;;;14.70;39.30;14.00;100755.00;;;;5058599;28;20065;-68
2022/04/04 05:34:32;;;;;;;4.32;3.30;;;14.70;39.30;13.90;100749.00;;;;5075498;28;20048;-68
2022/04/04 05:37:18;;;;;;;3.83;3.03;;;14.70;39.20;13.90;100750.00;;;;5074013;28;20070;-68
2022/04/04 05:40:04;;;;;;;4.80;3.08;;;14.70;39.20;13.90;100750.00;;;;5074969;28;20047;-68
2022/04/04 05:42:51;;;;;;;5.85;3.00;;;14.70;39.20;13.90;100750.00;;;;5073829;28;20051;-68
2022/04/04 05:45:38;;;;;;;4.65;2.80;;;14.70;39.20;13.90;100749.00;;;;5069423;28;20152;-68
2022/04/04 05:48:30;;;;;;;3.75;2.75;;;14.70;39.10;13.90;100733.00;;;;5053346;28;20482;-68
2022/04/04 05:51:19;;;;;;;5.78;2.83;;;14.60;39.00;13.90;100726.00;;;;5056363;28;20048;-68
2022/04/04 05:54:05;;;;;;;3.30;2.67;;;14.70;39.10;13.90;100718.00;;;;5053627;28;20116;-68
2022/04/04 05:56:51;;;;;;;4.13;2.63;;;14.70;39.10;13.90;100725.00;;;;5055714;28;20040;-68
2022/04/04 05:59:37;;;;;;;3.20;2.63;;;14.60;39.00;13.90;100719.00;;;;5053682;28;20505;-68
2022/04/04 06:02:24;;;;;;;4.15;2.97;;;14.60;39.10;13.80;100718.00;;;;5055054;28;20155;-68
2022/04/04 06:05:11;;;;;;;3.50;2.65;;;14.60;39.10;13.80;100708.00;;;;5045039;28;20605;-68
2022/04/04 06:07:57;;;;;;;3.42;2.65;;;14.60;39.10;13.80;100692.00;;;;5053209;28;20052;-68
2022/04/04 06:10:45;;;;;;;4.25;2.80;;;14.60;39.20;13.80;100692.00;;;;5060608;28;20449;-68
2022/04/04 06:13:31;;;;;;;4.57;2.53;;;14.50;39.00;13.80;100700.00;;;;5064291;28;20041;-68
2022/04/04 06:16:17;;;;;;;4.93;2.45;;;14.50;39.10;13.80;100686.00;;;;5049334;28;20102;-68
2022/04/04 06:19:03;;;;;;;4.00;2.60;;;14.60;39.00;13.80;100682.00;;;;5055185;28;20049;-68
2022/04/04 06:21:49;;;;;;;4.50;2.83;;;14.50;39.80;13.80;100684.00;;;;5057429;28;20045;-68
2022/04/04 06:24:35;;;;;;;3.50;2.25;;;14.60;39.10;13.80;100693.00;;;;5054857;28;20040;-68
2022/04/04 06:27:21;;;;;;;3.85;2.58;;;14.60;39.20;13.80;100686.00;;;;5059337;28;20064;-68
2022/04/04 06:30:09;;;;;;;3.53;2.60;;;14.50;38.90;13.80;100673.00;;;;5040680;28;20060;-68
2022/04/04 06:32:55;;;;;;;3.17;2.40;;;14.50;39.10;13.80;100674.00;;;;5024069;28;20029;-68
2022/04/04 06:35:41;;;;;;;5.18;2.80;;;14.50;39.10;13.70;100659.00;;;;5051579;28;20067;-68
2022/04/04 06:38:28;;;;;;;3.35;2.70;;;14.50;39.20;13.80;100666.00;;;;5043027;28;20077;-68
2022/04/04 06:41:14;;;;;;;3.33;2.57;;;14.50;39.00;13.70;100655.00;;;;5041321;28;20047;-68
2022/04/04 06:44:00;;;;;;;4.95;2.47;;;14.50;39.00;13.70;100654.00;;;;5054175;28;20041;-68
2022/04/04 06:46:46;;;;;;;3.22;2.72;;;14.50;38.90;13.70;100638.00;;;;5050797;28;20044;-68
2022/04/04 06:49:32;;;;;;;3.63;2.17;;;14.50;39.10;13.70;100628.00;;;;5059165;28;20460;-68
2022/04/04 06:52:21;;;;;;;3.60;2.50;;;14.50;39.00;13.70;100639.00;;;;5051729;28;20053;-68
2022/04/04 06:55:08;;;;;;;4.40;2.92;;;14.50;39.20;13.70;100621.00;;;;5058039;28;20526;-68
2022/04/04 06:57:55;;;;;;;2.38;1.83;;;14.50;39.10;13.70;100621.00;;;;5041965;28;20051;-68
2022/04/04 07:00:42;;;;;;;2.92;2.47;;;14.50;39.10;13.70;100629.00;;;;5050677;28;20067;-68
2022/04/04 07:03:28;;;;;;;4.57;2.60;;;14.50;39.10;13.70;100634.00;;;;5057664;28;20107;-68
2022/04/04 07:06:15;;;;;;;5.00;2.70;;;14.50;39.10;13.70;100610.00;;;;5038913;28;20433;-68
2022/04/04 07:09:02;;;;;;;4.65;3.00;;;14.50;39.10;13.70;100617.00;;;;5059305;28;20507;-68
2022/04/04 07:11:51;;;;;;;3.25;2.75;;;14.40;39.10;13.70;100613.00;;;;5055181;28;20461;-68
2022/04/04 07:14:37;;;;;;;5.45;2.72;;;14.40;39.10;13.70;100594.00;;;;5054340;28;20375;-68
2022/04/04 07:17:23;;;;;;;4.32;2.47;;;14.40;39.20;13.60;100604.00;;;;5063002;28;20049;-68
2022/04/04 07:20:10;;;;;;;6.32;2.75;;;14.40;39.20;13.60;100582.00;;;;5055784;28;20045;-68
2022/04/04 07:22:56;;;;;;;3.75;2.90;;;14.40;39.40;13.60;100579.00;;;;5024744;28;20082;-68
2022/04/04 07:25:42;;;;;;;3.50;2.40;;;14.40;39.40;13.60;100568.00;;;;5060074;28;20403;-68
2022/04/04 07:28:28;;;;;;;3.40;2.60;;;14.40;39.50;13.60;100565.00;;;;5038945;28;20057;-68
2022/04/04 07:31:15;;;;;;;3.38;2.72;;;14.40;39.60;13.60;100563.00;;;;5065896;28;20678;-68
2022/04/04 07:34:01;;;;;;;4.43;2.80;;;14.30;39.60;13.60;100558.00;;;;5029683;28;20371;-68
2022/04/04 07:36:47;;;;;;;3.58;2.90;;;14.30;39.70;13.60;100549.00;;;;5050276;28;20052;-68
2022/04/04 07:39:33;;;;;;;3.25;2.53;;;14.30;39.70;13.60;100537.00;;;;5062303;28;20047;-68
2022/04/04 07:42:22;;;;;;;3.67;2.80;;;14.30;39.80;13.50;100544.00;;;;5056725;28;20041;-68
2022/04/04 07:45:09;;;;;;;3.15;2.60;;;14.30;39.90;13.50;100525.00;;;;5050215;28;20107;-68
2022/04/04 07:47:55;;;;;;;5.37;2.80;;;14.20;39.90;13.50;100527.00;;;;5040709;28;20068;-68
2022/04/04 07:50:45;;;;;;;4.28;2.78;;;14.60;40.20;13.50;100512.00;;;;5046449;28;20045;-68
2022/04/04 07:53:31;;;;;;;4.00;3.30;;;14.30;40.10;13.50;100501.00;;;;5056452;28;20036;-68
2022/04/04 07:56:19;;;;;;;4.50;3.28;;;14.30;40.20;13.50;100499.00;;;;5051513;28;20675;-68
2022/04/04 07:59:05;;;;;;;4.38;2.47;;;14.30;40.20;13.50;100500.00;;;;5060334;28;20143;-68
2022/04/04 08:01:51;;;;;;;3.08;2.60;;;14.30;40.30;13.50;100493.00;;;;5057739;28;20059;-68
2022/04/04 08:04:38;;;;;;;4.80;3.15;;;14.30;40.40;13.50;100491.00;;;;5048336;28;20045;-68
2022/04/04 08:07:24;;;;;;;4.75;3.20;;;14.30;40.50;13.50;100488.00;;;;5053976;28;20041;-68
2022/04/04 08:10:10;;;;;;;3.83;3.00;;;14.30;40.70;13.50;100483.00;;;;5056703;28;20498;-69
2022/04/04 08:12:56;;;;;;;3.88;2.92;;;14.20;40.70;13.50;100478.00;;;;5060341;28;20049;-68
2022/04/04 08:15:42;;;;;;;6.40;3.60;;;14.30;40.90;13.50;100465.00;;;;5060106;28;20048;-68
2022/04/04 08:18:28;;;;;;;4.13;3.40;;;14.20;40.90;13.50;100461.00;;;;5060661;28;20110;-68
2022/04/04 08:21:15;;;;;;;4.20;3.08;;;14.30;41.10;13.50;100466.00;;;;5062024;28;20041;-68
2022/04/04 08:24:02;;;;;;;4.50;3.03;;;14.20;41.20;13.50;100452.00;;;;5054331;28;20052;-68
2022/04/04 08:26:48;;;;;;;5.40;2.80;;;14.30;41.30;13.50;100442.00;;;;5059958;28;20051;-68
2022/04/04 08:29:34;;;;;;;4.88;3.45;;;14.30;41.50;13.50;100442.00;;;;5061774;28;20040;-68
2022/04/04 08:32:20;;;;;;;5.47;3.40;;;14.20;41.50;13.50;100444.00;;;;5061829;28;20033;-68
2022/04/04 08:35:08;;;;;;;4.30;3.67;;;14.30;41.70;13.50;100426.00;;;;5058679;28;20033;-68
2022/04/04 08:37:54;;;;;;;;;;;14.30;41.90;13.50;100422.00;;;;5055994;28;20534;-68
2022/04/04 08:40:40;;;;;;;5.25;3.03;;;14.20;41.40;13.50;100414.00;;;;5069220;28;19920;-68
2022/04/04 08:43:27;;;;;;;4.50;3.30;;;14.30;41.90;13.50;100400.00;;;;5060771;28;20048;-68
2022/04/04 08:46:14;;;;;;;4.35;3.25;;;14.30;42.20;13.50;100403.00;;;;5046263;28;20055;-68
2022/04/04 08:49:05;;;;;;;6.18;3.72;;;14.20;42.20;13.50;100402.00;;;;5055951;28;20041;-68
2022/04/04 08:51:51;;;;;;;6.53;3.55;;;14.30;42.40;13.50;100382.00;;;;5052892;28;20096;-68
2022/04/04 08:54:38;;;;;;;4.60;3.65;;;14.20;42.40;13.50;100383.00;;;;5049705;28;20043;-68
2022/04/04 08:57:24;;;;;;;4.60;3.45;;;14.20;42.50;13.50;100353.00;;;;5043228;28;20392;-68
2022/04/04 09:00:10;;;;;;;4.93;3.25;;;14.30;42.60;13.50;100370.00;;;;5063949;28;20098;-68
2022/04/04 09:03:02;;;;;;;5.72;3.75;;;14.30;42.60;13.50;100361.00;;;;5040448;28;20050;-68
2022/04/04 09:05:53;;;;;;;4.68;3.60;;;14.30;42.70;13.50;100360.00;;;;5052945;28;20041;-68
2022/04/04 09:08:45;;;;;;;4.97;3.38;;;14.30;42.80;13.50;100341.00;;;;5059622;28;20032;-68
2022/04/04 09:11:31;;;;;;;5.07;3.38;;;14.30;42.90;13.50;100341.00;;;;5054686;28;20060;-68
2022/04/04 09:14:23;;;;;;;3.60;3.30;;;14.30;42.80;13.50;100324.00;;;;5063668;28;20037;-68
2022/04/04 09:17:10;;;;;;;3.90;3.50;;;14.20;42.90;13.50;100321.00;;;;5059156;28;20064;-68
2022/04/04 09:19:57;;;;;;;5.30;3.40;;;14.30;43.00;13.50;100323.00;;;;5027454;28;20045;-68
2022/04/04 09:22:52;;;;;;;6.07;3.58;;;14.30;43.00;13.50;100312.00;;;;5039674;28;20494;-68
2022/04/04 09:25:38;;;;;;;3.90;3.38;;;14.20;43.10;13.50;100316.00;;;;5062243;28;20386;-68
2022/04/04 09:28:24;;;;;;;4.93;3.47;;;14.20;43.00;13.50;100300.00;;;;5057396;28;20283;-68
2022/04/04 09:31:10;;;;;;;5.55;3.50;;;14.20;43.10;13.50;100299.00;;;;5057970;28;20406;-68
2022/04/04 09:34:01;;;;;;;4.13;3.22;;;14.20;43.20;13.50;100285.00;;;;5052644;28;20103;-68
2022/04/04 09:36:48;;;;;;;4.13;3.50;;;14.20;43.30;13.50;100280.00;;;;5063956;28;20041;-68
2022/04/04 09:39:34;;;;;;;5.25;3.83;;;14.20;43.20;13.40;100269.00;;;;5058723;28;20051;-68
2022/04/04 09:42:20;;;;;;;3.80;3.25;;;14.20;43.30;13.40;100257.00;;;;5056805;28;20702;-68
2022/04/04 09:45:09;;;;;;;4.30;3.58;;;14.20;43.40;13.40;100270.00;;;;5061518;28;20454;-68
2022/04/04 09:48:00;;;;;;;6.13;4.13;;;14.20;43.50;13.40;100268.00;;;;5052602;28;20055;-68
2022/04/04 09:50:48;;;;;;;8.77;3.80;;;14.20;43.60;13.40;100270.00;;;;5042682;28;20119;-68
2022/04/04 09:53:34;;;;;;;;;;;14.20;43.70;13.40;100250.00;;;;5054058;28;20032;-68
2022/04/04 09:56:20;;;;;;;6.78;3.95;;;14.20;43.10;13.40;100261.00;;;;5062068;28;19912;-68
2022/04/04 09:59:06;;;;;;;5.32;3.63;;;14.20;43.50;13.40;100239.00;;;;5047864;28;20451;-68
2022/04/04 10:01:52;;;;;;;5.00;3.67;;;14.20;43.70;13.40;100225.00;;;;5041546;28;20036;-68
2022/04/04 10:04:38;;;;;;;5.57;4.10;;;14.20;43.70;13.40;100233.00;;;;5056740;28;20028;-68
2022/04/04 10:07:24;;;;;;;3.90;3.50;;;14.20;43.90;13.40;100238.00;;;;5056435;28;20037;-68
2022/04/04 10:10:10;;;;;;;3.72;3.25;;;14.20;44.00;13.40;100232.00;;;;5055665;28;20060;-68
2022/04/04 10:12:57;;;;;;;4.78;3.85;;;14.30;44.20;13.40;100233.00;;;;5054812;28;20410;-68
2022/04/04 10:15:44;;;;;;;5.60;3.97;;;14.10;44.20;13.40;100231.00;;;;5039889;28;20036;-68
2022/04/04 10:18:30;;;;;;;5.35;4.00;;;14.30;44.50;13.40;100218.00;;;;5053290;28;20406;-68
2022/04/04 10:21:16;;;;;;;4.45;3.45;;;14.10;44.30;13.40;100222.00;;;;5042374;28;20056;-68
2022/04/04 10:24:02;;;;;;;5.10;3.70;;;14.10;44.40;13.30;100228.00;;;;5042737;28;20136;-68
2022/04/04 10:26:50;;;;;;;7.13;4.13;;;14.10;44.50;13.40;100225.00;;;;5045763;28;20040;-68
2022/04/04 10:29:45;;;;;;;7.03;5.07;;;14.10;44.70;13.40;100217.00;;;;5046273;28;20304;-68
2022/04/04 10:32:31;;;;;;;4.72;3.70;;;14.10;44.90;13.40;100223.00;;;;5046562;28;20068;-69
2022/04/04 10:35:27;;;;;;;4.80;4.22;;;14.10;44.80;13.40;100217.00;;;;5055415;28;20053;-69
2022/04/04 10:38:13;;;;;;;4.72;4.25;;;14.10;45.00;13.40;100222.00;;;;5042911;28;20037;-69
2022/04/04 10:41:03;;;;;;;9.15;4.63;;;14.10;44.90;13.40;100210.00;;;;5031722;28;20044;-69
2022/04/04 10:43:50;;;;;;;4.72;3.95;;;14.10;45.00;13.40;100215.00;;;;5026527;28;20110;-69
2022/04/04 10:46:36;;;;;;;4.90;4.22;;;14.10;45.00;13.40;100209.00;;;;5066747;28;20048;-68
2022/04/04 10:49:24;;;;;;;6.47;4.55;;;14.10;45.00;13.40;100192.00;;;;5050791;28;20128;-68
2022/04/04 10:52:10;;;;;;;5.90;4.15;;;14.10;45.10;13.40;100197.00;;;;5043081;28;20120;-68
2022/04/04 10:54:56;;;;;;;4.72;3.85;;;14.10;45.10;13.40;100190.00;;;;5052552;28;20040;-68
2022/04/04 10:57:43;;;;;;;5.97;4.15;;;14.10;45.20;13.40;100196.00;;;;5038061;28;20033;-68
2022/04/04 11:00:33;;;;;;;5.25;4.20;;;14.10;45.30;13.40;100176.00;;;;5056743;28;20371;-69
2022/04/04 11:03:29;;;;;;;6.63;3.78;;;14.10;45.50;13.40;100187.00;;;;5064090;28;20068;-69
2022/04/04 11:09:22;;;;;;;4.18;3.78;;;14.10;45.50;13.40;100174.00;;;;5059798;28;20056;-69
2022/04/04 11:12:11;;;;;;;5.65;3.80;;;14.10;45.60;13.40;100161.00;;;;5043074;28;20037;-69
2022/04/04 11:15:06;;;;;;;6.68;4.45;;;14.10;45.70;13.40;100158.00;;;;5059833;28;20041;-68
2022/04/04 11:17:55;;;;;;;5.47;3.85;;;14.10;45.90;13.40;100162.00;;;;5050378;28;20043;-68
2022/04/04 11:20:50;;;;;;;5.95;3.78;;;14.10;45.90;13.40;100155.00;;;;5055490;28;20513;-68
2022/04/04 11:23:36;;;;;;;5.38;4.38;;;14.10;46.00;13.40;100141.00;;;;5067545;28;20032;-68
2022/04/04 11:26:22;;;;;;;4.80;4.20;;;14.10;45.90;13.40;100151.00;;;;5038994;28;20102;-68
2022/04/04 11:29:10;;;;;;;4.50;4.00;;;14.20;46.10;13.40;100136.00;;;;5029603;28;20398;-68
2022/04/04 11:31:56;;;;;;;5.22;4.03;;;14.20;46.00;13.40;100138.00;;;;5048715;28;20078;-68
2022/04/04 11:34:43;;;;;;;3.83;3.42;;;14.20;46.00;13.40;100147.00;;;;5053546;28;20035;-68
2022/04/04 11:37:30;;;;;;;3.92;3.53;;;14.10;46.20;13.40;100134.00;;;;5059178;28;20053;-68
2022/04/04 11:40:25;;;;;;;3.80;3.50;;;14.10;46.20;13.40;100124.00;;;;5055132;28;20036;-69
2022/04/04 11:43:13;;;;;;;6.10;4.10;;;14.10;46.40;13.40;100134.00;;;;5041475;28;20057;-68
2022/04/04 11:46:01;;;;;;;5.63;4.20;;;14.10;46.30;13.40;100119.00;;;;5061549;28;20082;-68
2022/04/04 11:48:54;;;;;;;4.90;3.72;;;14.10;46.30;13.40;100100.00;;;;5053795;28;20401;-68
2022/04/04 11:51:41;;;;;;;3.35;3.03;;;14.20;46.50;13.40;100108.00;;;;5048011;28;20047;-68
2022/04/04 11:54:49;;;;;;;6.72;3.90;;;14.10;46.40;13.40;100097.00;;;;5059089;28;20516;-68
2022/04/04 11:57:35;;;;;;;4.38;3.47;;;14.20;46.60;13.40;100093.00;;;;5046560;28;20074;-68
2022/04/04 12:00:23;;;;;;;4.28;3.67;;;14.20;46.60;13.40;100081.00;;;;5061267;28;20490;-68
2022/04/04 12:03:13;;;;;;;4.70;3.67;;;14.10;46.60;13.40;100083.00;;;;5056767;28;20123;-68
2022/04/04 12:06:06;;;;;;;4.63;3.30;;;14.10;46.80;13.40;100088.00;;;;5061967;28;20445;-68
2022/04/04 12:08:53;;;;;;;4.65;3.83;;;14.20;46.80;13.40;100078.00;;;;5058536;28;20044;-68
2022/04/04 12:11:39;;;;;;;7.55;3.38;;;14.20;46.90;13.40;100081.00;;;;5053178;28;20097;-68
2022/04/04 12:14:40;;;;;;;4.75;3.65;;;14.20;47.00;13.40;100089.00;;;;5066548;28;20044;-68
2022/04/04 12:17:26;;;;;;;4.25;3.50;;;14.10;47.10;13.40;100073.00;;;;5063125;28;20510;-68
2022/04/04 12:20:12;;;;;;;4.75;3.10;;;14.20;47.10;13.40;100084.00;;;;5055836;28;20557;-68
2022/04/04 12:26:08;;;;;;;4.55;3.45;;;14.20;47.20;13.40;100061.00;;;;5049487;28;20036;-68